Portada
METAR-TAF:

METAR-TAF

Aeropuertos :

Curazao, Antillas Neerlandesas

Aeropuerto Internacional Hato

latitud: 12-12N, longitud: 068-58W, altitud: 9 m

Observación

El informe se hizo hace 41 minutos, a las 09:00 UTC
Viento 2 kt con dirección variable
Temperatura 25°C
Humedad 89%
Presión 1011 hPa
Visibilidad 10 km o más
Escasas nubes a una altura de 1600 ft

METAR: TNCC 250900Z VRB02KT 9999 FEW016 25/23 Q1011 NOSIG

Hora: 05:41 (09:41 UTC)

Pronóstico

El informe se hizo hace 6 horas y 6 minutos, a las 03:35 UTC
Pronóstico válido del 25 a las 06 UTC al 26 a las 06 UTC
Viento 8 kt del este
Visibilidad 10 km o más
Nubes dispersas a una altura de 1800 ft
Probabilidad 30% :
Temporalmente
del 25 a las 06 UTC al 25 a las 18 UTC
Visibilidad: 5000 m
Cielo nuboso a una altura de 1500 ft
Cielo nuboso a una altura de 3000 ft
chaparrones de lluvia

TAF: TNCC 250335Z 2506/2606 10008KT 9999 SCT018 PROB30 TEMPO 2506/2518 5000 SHRA BKN015 BKN030

Observaciones y pronósticos meteorológicos de más de 4000 aeropuertos (mensajes METAR y TAF).

Los puntos amarillos y rojos representan las estaciones disponibles.

Ponga el ratón en el punto deseado para ver el nombre de la estación.

Haga clic para ver las observaciones y los pronósticos meteorológicos.

Para cambiar el mapa : haga clic en los botones verdes con una cruz de color negro para hacer un zoom, en el botón verde con un guión para alejar o en las flechas verdes para mapas adyacentes.


METAR-TAF: